Wickham, United Kingdom
Current Conditions -  °F | °C
As of 12:50 AM on Wednesday 26 Nov 2014 (Local Time) from EGUB Reporting Station
Overcast Overcast  
Wind Chill: 41°   Ceiling: 800
Heat Index: 45°   Visibility: 2.3mi
Dew Point: 43°   Wind: 6mph
Humidity: 93%   Direction: 100°E
Pressure: 29.94"   Gusts: NA
Location:  51.44°N, 1.43°W
Report Text: EGUB 260050Z AUTO 10005KT 3700 // FEW004/// OVC008/// 07/06 Q1014
Loading
Personal Weather Stations






























Interactive Weather Map New forecast layout! Learn more

10-Day Weather Forecast

Advertisements
Track Severe Weather on mobile